sensor_id;sensor_type;location;lat;lon;timestamp;pressure;altitude;pressure_sealevel;temperature;humidity
29815;BME280;16708;50.426;7.664;2023-05-10T00:02:43;980.86;;;11.58;100.00
29815;BME280;16708;50.426;7.664;2023-05-10T00:07:38;980.89;;;11.47;100.00
29815;BME280;16708;50.426;7.664;2023-05-10T00:12:32;980.83;;;11.44;100.00
29815;BME280;16708;50.426;7.664;2023-05-10T00:17:26;980.88;;;11.44;100.00
29815;BME280;16708;50.426;7.664;2023-05-10T00:22:20;980.81;;;11.42;100.00
29815;BME280;16708;50.426;7.664;2023-05-10T00:27:15;980.88;;;11.39;100.00
29815;BME280;16708;50.426;7.664;2023-05-10T00:32:10;980.81;;;11.36;100.00
29815;BME280;16708;50.426;7.664;2023-05-10T00:37:04;980.83;;;11.38;100.00
29815;BME280;16708;50.426;7.664;2023-05-10T00:41:58;980.84;;;11.35;100.00
29815;BME280;16708;50.426;7.664;2023-05-10T00:46:52;980.85;;;11.34;100.00
29815;BME280;16708;50.426;7.664;2023-05-10T00:51:45;980.87;;;11.32;100.00
29815;BME280;16708;50.426;7.664;2023-05-10T00:56:39;980.86;;;11.29;100.00
29815;BME280;16708;50.426;7.664;2023-05-10T01:01:33;980.92;;;11.28;100.00
29815;BME280;16708;50.426;7.664;2023-05-10T01:06:27;980.90;;;11.29;100.00
29815;BME280;16708;50.426;7.664;2023-05-10T01:11:21;980.96;;;11.36;100.00
29815;BME280;16708;50.426;7.664;2023-05-10T01:16:13;980.85;;;11.36;100.00
29815;BME280;16708;50.426;7.664;2023-05-10T01:30:53;980.97;;;11.35;100.00
29815;BME280;16708;50.426;7.664;2023-05-10T01:35:47;980.96;;;11.29;100.00
29815;BME280;16708;50.426;7.664;2023-05-10T01:40:41;980.88;;;11.28;100.00
29815;BME280;16708;50.426;7.664;2023-05-10T01:45:35;980.97;;;11.30;100.00
29815;BME280;16708;50.426;7.664;2023-05-10T01:50:30;980.89;;;11.30;100.00
29815;BME280;16708;50.426;7.664;2023-05-10T01:55:24;980.99;;;11.31;100.00
29815;BME280;16708;50.426;7.664;2023-05-10T02:00:19;980.91;;;11.33;100.00
29815;BME280;16708;50.426;7.664;2023-05-10T02:05:13;980.96;;;11.31;100.00
29815;BME280;16708;50.426;7.664;2023-05-10T02:10:08;980.90;;;11.23;100.00
29815;BME280;16708;50.426;7.664;2023-05-10T02:15:02;980.95;;;11.27;100.00
29815;BME280;16708;50.426;7.664;2023-05-10T02:19:56;981.05;;;11.38;100.00
29815;BME280;16708;50.426;7.664;2023-05-10T02:24:50;981.05;;;11.33;100.00
29815;BME280;16708;50.426;7.664;2023-05-10T02:29:47;981.14;;;11.34;100.00
29815;BME280;16708;50.426;7.664;2023-05-10T02:34:38;981.14;;;11.31;100.00
29815;BME280;16708;50.426;7.664;2023-05-10T02:39:31;981.13;;;11.28;100.00
29815;BME280;16708;50.426;7.664;2023-05-10T02:44:26;981.14;;;11.32;100.00
29815;BME280;16708;50.426;7.664;2023-05-10T02:49:20;981.10;;;11.35;100.00
29815;BME280;16708;50.426;7.664;2023-05-10T02:54:15;981.16;;;11.33;100.00
29815;BME280;16708;50.426;7.664;2023-05-10T02:59:10;981.12;;;11.31;100.00
29815;BME280;16708;50.426;7.664;2023-05-10T03:04:04;981.09;;;11.26;100.00
29815;BME280;16708;50.426;7.664;2023-05-10T03:08:58;981.12;;;11.25;100.00
29815;BME280;16708;50.426;7.664;2023-05-10T03:13:52;981.12;;;11.29;100.00
29815;BME280;16708;50.426;7.664;2023-05-10T03:18:46;981.18;;;11.22;100.00
29815;BME280;16708;50.426;7.664;2023-05-10T03:23:40;981.15;;;11.19;100.00
29815;BME280;16708;50.426;7.664;2023-05-10T03:28:34;981.24;;;11.23;100.00
29815;BME280;16708;50.426;7.664;2023-05-10T03:33:29;981.21;;;11.27;100.00
29815;BME280;16708;50.426;7.664;2023-05-10T03:38:23;981.32;;;11.23;100.00
29815;BME280;16708;50.426;7.664;2023-05-10T03:43:18;981.28;;;11.22;100.00
29815;BME280;16708;50.426;7.664;2023-05-10T03:48:11;981.34;;;11.22;100.00
29815;BME280;16708;50.426;7.664;2023-05-10T03:53:07;981.36;;;11.17;100.00
29815;BME280;16708;50.426;7.664;2023-05-10T03:58:00;981.35;;;11.16;100.00
29815;BME280;16708;50.426;7.664;2023-05-10T04:02:54;981.33;;;11.25;100.00
29815;BME280;16708;50.426;7.664;2023-05-10T04:07:49;981.50;;;11.26;100.00
29815;BME280;16708;50.426;7.664;2023-05-10T04:12:42;981.49;;;11.27;100.00
29815;BME280;16708;50.426;7.664;2023-05-10T04:17:36;981.51;;;11.26;100.00
29815;BME280;16708;50.426;7.664;2023-05-10T04:22:30;981.53;;;11.32;100.00
29815;BME280;16708;50.426;7.664;2023-05-10T04:27:25;981.56;;;11.25;100.00
29815;BME280;16708;50.426;7.664;2023-05-10T04:32:19;981.49;;;11.25;100.00
29815;BME280;16708;50.426;7.664;2023-05-10T04:37:13;981.48;;;11.26;100.00
29815;BME280;16708;50.426;7.664;2023-05-10T04:42:07;981.51;;;11.26;100.00
29815;BME280;16708;50.426;7.664;2023-05-10T04:47:02;981.50;;;11.21;100.00
29815;BME280;16708;50.426;7.664;2023-05-10T04:51:56;981.49;;;11.30;100.00
29815;BME280;16708;50.426;7.664;2023-05-10T04:56:50;981.60;;;11.30;100.00
29815;BME280;16708;50.426;7.664;2023-05-10T05:01:45;981.68;;;11.27;100.00
29815;BME280;16708;50.426;7.664;2023-05-10T05:06:39;981.70;;;11.36;100.00
29815;BME280;16708;50.426;7.664;2023-05-10T05:11:32;981.66;;;11.55;100.00
29815;BME280;16708;50.426;7.664;2023-05-10T05:16:27;981.79;;;11.53;100.00
29815;BME280;16708;50.426;7.664;2023-05-10T05:21:22;981.92;;;11.58;100.00
29815;BME280;16708;50.426;7.664;2023-05-10T05:26:17;981.94;;;11.59;100.00
29815;BME280;16708;50.426;7.664;2023-05-10T05:31:11;981.94;;;11.59;100.00
29815;BME280;16708;50.426;7.664;2023-05-10T05:36:06;981.95;;;11.59;100.00
29815;BME280;16708;50.426;7.664;2023-05-10T05:41:00;982.06;;;11.61;100.00
29815;BME280;16708;50.426;7.664;2023-05-10T05:45:55;982.04;;;11.63;100.00
29815;BME280;16708;50.426;7.664;2023-05-10T05:50:48;982.07;;;11.66;100.00
29815;BME280;16708;50.426;7.664;2023-05-10T05:55:43;982.07;;;11.70;100.00
29815;BME280;16708;50.426;7.664;2023-05-10T06:00:37;982.13;;;11.78;100.00
29815;BME280;16708;50.426;7.664;2023-05-10T06:05:31;982.14;;;11.86;100.00
29815;BME280;16708;50.426;7.664;2023-05-10T06:10:26;982.12;;;11.82;100.00
29815;BME280;16708;50.426;7.664;2023-05-10T06:15:21;982.20;;;12.29;100.00
29815;BME280;16708;50.426;7.664;2023-05-10T06:20:15;982.13;;;12.23;100.00
29815;BME280;16708;50.426;7.664;2023-05-10T06:25:10;982.15;;;12.18;100.00
29815;BME280;16708;50.426;7.664;2023-05-10T06:30:05;982.09;;;12.09;100.00
29815;BME280;16708;50.426;7.664;2023-05-10T06:34:59;982.19;;;12.18;100.00
29815;BME280;16708;50.426;7.664;2023-05-10T06:39:52;982.20;;;12.16;100.00
29815;BME280;16708;50.426;7.664;2023-05-10T06:44:44;982.28;;;12.07;100.00
29815;BME280;16708;50.426;7.664;2023-05-10T06:49:39;982.30;;;12.43;100.00
29815;BME280;16708;50.426;7.664;2023-05-10T06:54:33;982.22;;;12.16;100.00
29815;BME280;16708;50.426;7.664;2023-05-10T06:59:27;982.25;;;12.49;100.00
29815;BME280;16708;50.426;7.664;2023-05-10T07:04:22;982.29;;;12.42;100.00
29815;BME280;16708;50.426;7.664;2023-05-10T07:09:17;982.35;;;12.24;100.00
29815;BME280;16708;50.426;7.664;2023-05-10T07:14:11;982.36;;;12.15;100.00
29815;BME280;16708;50.426;7.664;2023-05-10T07:19:05;982.52;;;12.31;100.00
29815;BME280;16708;50.426;7.664;2023-05-10T07:23:59;982.48;;;12.56;100.00
29815;BME280;16708;50.426;7.664;2023-05-10T07:28:53;982.59;;;12.59;100.00
29815;BME280;16708;50.426;7.664;2023-05-10T07:33:48;982.53;;;12.65;100.00
29815;BME280;16708;50.426;7.664;2023-05-10T07:38:42;982.49;;;13.37;100.00
29815;BME280;16708;50.426;7.664;2023-05-10T07:43:37;982.49;;;13.24;100.00
29815;BME280;16708;50.426;7.664;2023-05-10T07:48:31;982.55;;;13.04;100.00
29815;BME280;16708;50.426;7.664;2023-05-10T07:53:25;982.67;;;12.81;100.00
29815;BME280;16708;50.426;7.664;2023-05-10T07:58:19;982.72;;;12.58;100.00
29815;BME280;16708;50.426;7.664;2023-05-10T08:03:14;982.64;;;12.88;100.00
29815;BME280;16708;50.426;7.664;2023-05-10T08:08:08;982.57;;;13.55;100.00
29815;BME280;16708;50.426;7.664;2023-05-10T08:13:03;982.57;;;14.29;100.00
29815;BME280;16708;50.426;7.664;2023-05-10T08:17:58;982.58;;;14.09;100.00
29815;BME280;16708;50.426;7.664;2023-05-10T08:22:52;982.57;;;13.62;100.00
29815;BME280;16708;50.426;7.664;2023-05-10T08:27:47;982.58;;;14.05;100.00
29815;BME280;16708;50.426;7.664;2023-05-10T08:32:41;982.62;;;13.86;100.00
29815;BME280;16708;50.426;7.664;2023-05-10T08:37:37;982.69;;;14.13;100.00
29815;BME280;16708;50.426;7.664;2023-05-10T08:42:30;982.62;;;13.97;100.00
29815;BME280;16708;50.426;7.664;2023-05-10T08:47:25;982.79;;;14.01;100.00
29815;BME280;16708;50.426;7.664;2023-05-10T08:52:19;982.73;;;13.84;100.00
29815;BME280;16708;50.426;7.664;2023-05-10T08:57:12;982.75;;;13.92;100.00
29815;BME280;16708;50.426;7.664;2023-05-10T09:02:05;982.79;;;14.35;100.00
29815;BME280;16708;50.426;7.664;2023-05-10T09:06:59;982.83;;;14.15;100.00
29815;BME280;16708;50.426;7.664;2023-05-10T09:11:53;982.88;;;14.40;100.00
29815;BME280;16708;50.426;7.664;2023-05-10T09:16:48;982.84;;;15.13;100.00
29815;BME280;16708;50.426;7.664;2023-05-10T09:21:42;982.87;;;14.58;100.00
29815;BME280;16708;50.426;7.664;2023-05-10T09:26:37;982.84;;;14.78;100.00
29815;BME280;16708;50.426;7.664;2023-05-10T09:36:26;983.02;;;13.93;100.00
29815;BME280;16708;50.426;7.664;2023-05-10T09:41:20;982.98;;;13.57;100.00
29815;BME280;16708;50.426;7.664;2023-05-10T09:46:13;983.22;;;13.45;100.00
29815;BME280;16708;50.426;7.664;2023-05-10T09:51:08;983.12;;;13.20;100.00
29815;BME280;16708;50.426;7.664;2023-05-10T09:56:02;983.34;;;13.08;100.00
29815;BME280;16708;50.426;7.664;2023-05-10T10:00:56;983.46;;;13.43;100.00
29815;BME280;16708;50.426;7.664;2023-05-10T10:05:50;983.27;;;13.64;100.00
29815;BME280;16708;50.426;7.664;2023-05-10T10:10:45;983.14;;;14.64;100.00
29815;BME280;16708;50.426;7.664;2023-05-10T10:15:40;983.16;;;15.41;100.00
29815;BME280;16708;50.426;7.664;2023-05-10T10:20:35;983.21;;;15.69;100.00
29815;BME280;16708;50.426;7.664;2023-05-10T10:25:30;983.26;;;15.68;100.00
29815;BME280;16708;50.426;7.664;2023-05-10T10:30:25;983.26;;;15.76;100.00
29815;BME280;16708;50.426;7.664;2023-05-10T10:45:09;983.29;;;17.76;100.00
29815;BME280;16708;50.426;7.664;2023-05-10T10:50:04;983.15;;;17.65;100.00
29815;BME280;16708;50.426;7.664;2023-05-10T10:54:59;983.24;;;18.89;100.00
29815;BME280;16708;50.426;7.664;2023-05-10T11:09:43;983.18;;;18.44;100.00
29815;BME280;16708;50.426;7.664;2023-05-10T11:14:37;983.20;;;17.54;100.00
29815;BME280;16708;50.426;7.664;2023-05-10T11:19:31;983.21;;;17.63;100.00
29815;BME280;16708;50.426;7.664;2023-05-10T11:24:28;983.19;;;17.72;100.00
29815;BME280;16708;50.426;7.664;2023-05-10T11:29:20;983.08;;;17.50;100.00
29815;BME280;16708;50.426;7.664;2023-05-10T11:39:09;983.16;;;17.05;100.00
29815;BME280;16708;50.426;7.664;2023-05-10T11:44:03;983.14;;;16.76;100.00
29815;BME280;16708;50.426;7.664;2023-05-10T11:48:58;983.11;;;15.92;100.00
29815;BME280;16708;50.426;7.664;2023-05-10T11:53:51;983.26;;;15.63;100.00
29815;BME280;16708;50.426;7.664;2023-05-10T11:58:43;983.28;;;15.51;100.00
29815;BME280;16708;50.426;7.664;2023-05-10T12:03:37;983.32;;;15.65;100.00
29815;BME280;16708;50.426;7.664;2023-05-10T12:08:31;983.28;;;15.69;100.00
29815;BME280;16708;50.426;7.664;2023-05-10T12:13:25;983.36;;;15.44;100.00
29815;BME280;16708;50.426;7.664;2023-05-10T12:23:13;983.30;;;14.77;100.00
29815;BME280;16708;50.426;7.664;2023-05-10T12:28:07;983.43;;;14.61;100.00
29815;BME280;16708;50.426;7.664;2023-05-10T12:33:01;983.48;;;14.41;100.00
29815;BME280;16708;50.426;7.664;2023-05-10T12:37:55;983.60;;;13.72;100.00
29815;BME280;16708;50.426;7.664;2023-05-10T12:42:49;983.83;;;13.36;100.00
29815;BME280;16708;50.426;7.664;2023-05-10T12:47:42;983.83;;;13.08;100.00
29815;BME280;16708;50.426;7.664;2023-05-10T12:52:38;983.76;;;12.81;100.00
29815;BME280;16708;50.426;7.664;2023-05-10T12:57:29;983.89;;;13.17;100.00
29815;BME280;16708;50.426;7.664;2023-05-10T13:02:22;983.98;;;12.99;100.00
29815;BME280;16708;50.426;7.664;2023-05-10T13:07:17;984.02;;;13.08;100.00
29815;BME280;16708;50.426;7.664;2023-05-10T13:12:11;983.99;;;13.51;100.00
29815;BME280;16708;50.426;7.664;2023-05-10T13:17:06;983.95;;;14.35;100.00
29815;BME280;16708;50.426;7.664;2023-05-10T13:22:00;983.91;;;15.50;100.00
29815;BME280;16708;50.426;7.664;2023-05-10T13:26:56;983.97;;;16.48;100.00
29815;BME280;16708;50.426;7.664;2023-05-10T13:31:50;983.91;;;15.46;100.00
29815;BME280;16708;50.426;7.664;2023-05-10T13:36:44;983.90;;;15.26;100.00
29815;BME280;16708;50.426;7.664;2023-05-10T13:41:38;983.90;;;15.41;100.00
29815;BME280;16708;50.426;7.664;2023-05-10T13:46:33;983.89;;;14.62;100.00
29815;BME280;16708;50.426;7.664;2023-05-10T13:51:27;983.94;;;14.42;100.00
29815;BME280;16708;50.426;7.664;2023-05-10T13:56:21;983.89;;;14.34;100.00
29815;BME280;16708;50.426;7.664;2023-05-10T14:01:15;983.86;;;14.63;100.00
29815;BME280;16708;50.426;7.664;2023-05-10T14:06:09;983.85;;;15.18;100.00
29815;BME280;16708;50.426;7.664;2023-05-10T14:11:02;983.80;;;15.59;100.00
29815;BME280;16708;50.426;7.664;2023-05-10T14:15:58;983.77;;;15.71;100.00
29815;BME280;16708;50.426;7.664;2023-05-10T14:20:52;983.72;;;15.98;100.00
29815;BME280;16708;50.426;7.664;2023-05-10T14:25:43;983.65;;;16.14;100.00
29815;BME280;16708;50.426;7.664;2023-05-10T14:30:37;983.62;;;16.25;100.00
29815;BME280;16708;50.426;7.664;2023-05-10T14:35:31;983.66;;;17.08;100.00
29815;BME280;16708;50.426;7.664;2023-05-10T14:40:26;983.64;;;17.31;100.00
29815;BME280;16708;50.426;7.664;2023-05-10T14:45:21;983.49;;;16.66;100.00
29815;BME280;16708;50.426;7.664;2023-05-10T14:50:15;983.52;;;15.40;100.00
29815;BME280;16708;50.426;7.664;2023-05-10T14:55:08;983.51;;;15.03;100.00
29815;BME280;16708;50.426;7.664;2023-05-10T15:00:02;983.64;;;15.04;100.00
29815;BME280;16708;50.426;7.664;2023-05-10T15:04:56;983.58;;;14.91;100.00
29815;BME280;16708;50.426;7.664;2023-05-10T15:09:50;983.64;;;14.75;100.00
29815;BME280;16708;50.426;7.664;2023-05-10T15:14:45;983.61;;;14.68;100.00
29815;BME280;16708;50.426;7.664;2023-05-10T15:19:47;983.63;;;14.71;100.00
29815;BME280;16708;50.426;7.664;2023-05-10T15:24:31;983.68;;;14.73;100.00
29815;BME280;16708;50.426;7.664;2023-05-10T15:29:25;983.86;;;14.69;100.00
29815;BME280;16708;50.426;7.664;2023-05-10T15:34:20;983.85;;;14.77;100.00
29815;BME280;16708;50.426;7.664;2023-05-10T15:39:14;983.92;;;14.80;100.00
29815;BME280;16708;50.426;7.664;2023-05-10T15:44:09;983.98;;;14.83;100.00
29815;BME280;16708;50.426;7.664;2023-05-10T15:49:03;983.99;;;15.04;100.00
29815;BME280;16708;50.426;7.664;2023-05-10T15:53:58;983.90;;;15.20;100.00
29815;BME280;16708;50.426;7.664;2023-05-10T15:58:52;983.92;;;14.92;100.00
29815;BME280;16708;50.426;7.664;2023-05-10T16:03:47;983.91;;;15.20;100.00
29815;BME280;16708;50.426;7.664;2023-05-10T16:08:42;983.96;;;15.22;100.00
29815;BME280;16708;50.426;7.664;2023-05-10T16:13:36;984.06;;;15.84;100.00
29815;BME280;16708;50.426;7.664;2023-05-10T16:18:30;984.09;;;18.98;100.00
29815;BME280;16708;50.426;7.664;2023-05-10T16:23:26;984.24;;;23.84;92.02
29815;BME280;16708;50.426;7.664;2023-05-10T16:28:22;984.17;;;22.69;81.23
29815;BME280;16708;50.426;7.664;2023-05-10T16:33:17;984.20;;;22.99;69.76
29815;BME280;16708;50.426;7.664;2023-05-10T16:38:13;984.15;;;23.07;76.34
29815;BME280;16708;50.426;7.664;2023-05-10T16:43:08;984.15;;;23.31;62.88
29815;BME280;16708;50.426;7.664;2023-05-10T16:48:04;984.14;;;21.95;68.34
29815;BME280;16708;50.426;7.664;2023-05-10T16:52:55;984.13;;;19.07;100.00
29815;BME280;16708;50.426;7.664;2023-05-10T16:57:48;984.14;;;20.52;95.67
29815;BME280;16708;50.426;7.664;2023-05-10T17:02:40;984.19;;;23.50;60.81
29815;BME280;16708;50.426;7.664;2023-05-10T17:07:34;984.35;;;21.62;76.64
29815;BME280;16708;50.426;7.664;2023-05-10T17:12:28;984.28;;;21.40;71.75
29815;BME280;16708;50.426;7.664;2023-05-10T17:17:23;984.25;;;21.51;73.31
29815;BME280;16708;50.426;7.664;2023-05-10T17:22:16;984.35;;;20.51;83.16
29815;BME280;16708;50.426;7.664;2023-05-10T17:27:10;984.24;;;19.94;100.00
29815;BME280;16708;50.426;7.664;2023-05-10T17:32:04;984.29;;;20.28;100.00
29815;BME280;16708;50.426;7.664;2023-05-10T17:36:59;984.22;;;19.88;98.78
29815;BME280;16708;50.426;7.664;2023-05-10T17:41:51;984.24;;;19.60;100.00
29815;BME280;16708;50.426;7.664;2023-05-10T17:46:45;984.32;;;20.94;94.79
29815;BME280;16708;50.426;7.664;2023-05-10T17:51:39;984.31;;;21.01;91.05
29815;BME280;16708;50.426;7.664;2023-05-10T17:56:33;984.41;;;21.78;79.01
29815;BME280;16708;50.426;7.664;2023-05-10T18:01:25;984.42;;;18.03;100.00
29815;BME280;16708;50.426;7.664;2023-05-10T18:06:19;984.37;;;18.44;100.00
29815;BME280;16708;50.426;7.664;2023-05-10T18:11:13;984.32;;;16.31;100.00
29815;BME280;16708;50.426;7.664;2023-05-10T18:16:06;984.33;;;15.25;100.00
29815;BME280;16708;50.426;7.664;2023-05-10T18:21:00;984.31;;;14.73;100.00
29815;BME280;16708;50.426;7.664;2023-05-10T18:25:54;984.34;;;14.47;100.00
29815;BME280;16708;50.426;7.664;2023-05-10T18:30:47;984.40;;;14.33;100.00
29815;BME280;16708;50.426;7.664;2023-05-10T18:35:41;984.40;;;13.98;100.00
29815;BME280;16708;50.426;7.664;2023-05-10T18:40:34;984.45;;;13.53;100.00
29815;BME280;16708;50.426;7.664;2023-05-10T18:45:29;984.42;;;13.29;100.00
29815;BME280;16708;50.426;7.664;2023-05-10T18:50:23;984.50;;;13.19;100.00
29815;BME280;16708;50.426;7.664;2023-05-10T18:55:16;984.47;;;13.03;100.00
29815;BME280;16708;50.426;7.664;2023-05-10T19:00:10;984.57;;;12.66;100.00
29815;BME280;16708;50.426;7.664;2023-05-10T19:05:04;984.70;;;12.15;100.00
29815;BME280;16708;50.426;7.664;2023-05-10T19:09:58;984.71;;;12.05;100.00
29815;BME280;16708;50.426;7.664;2023-05-10T19:14:51;984.67;;;11.93;100.00
29815;BME280;16708;50.426;7.664;2023-05-10T19:19:42;984.82;;;11.91;100.00
29815;BME280;16708;50.426;7.664;2023-05-10T19:24:36;984.86;;;11.60;100.00
29815;BME280;16708;50.426;7.664;2023-05-10T19:29:30;984.88;;;11.42;100.00
29815;BME280;16708;50.426;7.664;2023-05-10T19:34:23;984.93;;;11.39;100.00
29815;BME280;16708;50.426;7.664;2023-05-10T19:39:16;984.98;;;11.32;100.00
29815;BME280;16708;50.426;7.664;2023-05-10T19:44:11;985.06;;;11.23;100.00
29815;BME280;16708;50.426;7.664;2023-05-10T19:49:05;985.12;;;11.04;100.00
29815;BME280;16708;50.426;7.664;2023-05-10T19:53:58;985.13;;;11.02;100.00
29815;BME280;16708;50.426;7.664;2023-05-10T19:58:53;985.19;;;10.99;100.00
29815;BME280;16708;50.426;7.664;2023-05-10T20:03:47;985.30;;;11.01;100.00
29815;BME280;16708;50.426;7.664;2023-05-10T20:08:42;985.37;;;10.91;100.00
29815;BME280;16708;50.426;7.664;2023-05-10T20:13:36;985.33;;;10.80;100.00
29815;BME280;16708;50.426;7.664;2023-05-10T20:18:30;985.34;;;10.60;100.00
29815;BME280;16708;50.426;7.664;2023-05-10T20:23:22;985.30;;;10.56;100.00
29815;BME280;16708;50.426;7.664;2023-05-10T20:28:16;985.39;;;10.59;100.00
29815;BME280;16708;50.426;7.664;2023-05-10T20:33:11;985.43;;;10.59;100.00
29815;BME280;16708;50.426;7.664;2023-05-10T20:38:05;985.39;;;10.60;100.00
29815;BME280;16708;50.426;7.664;2023-05-10T20:42:59;985.36;;;10.62;100.00
29815;BME280;16708;50.426;7.664;2023-05-10T20:47:57;985.30;;;10.49;100.00
29815;BME280;16708;50.426;7.664;2023-05-10T20:52:47;985.29;;;10.30;100.00
29815;BME280;16708;50.426;7.664;2023-05-10T20:57:41;985.22;;;10.13;100.00
29815;BME280;16708;50.426;7.664;2023-05-10T21:02:35;985.25;;;9.98;100.00
29815;BME280;16708;50.426;7.664;2023-05-10T21:07:29;985.26;;;9.87;100.00
29815;BME280;16708;50.426;7.664;2023-05-10T21:12:23;985.24;;;9.72;100.00
29815;BME280;16708;50.426;7.664;2023-05-10T21:17:17;985.24;;;9.64;100.00
29815;BME280;16708;50.426;7.664;2023-05-10T21:22:11;985.22;;;9.59;100.00
29815;BME280;16708;50.426;7.664;2023-05-10T21:27:05;985.26;;;9.50;100.00
29815;BME280;16708;50.426;7.664;2023-05-10T21:31:59;985.29;;;9.50;100.00
29815;BME280;16708;50.426;7.664;2023-05-10T21:36:52;985.38;;;9.47;100.00
29815;BME280;16708;50.426;7.664;2023-05-10T21:41:46;985.43;;;9.42;100.00
29815;BME280;16708;50.426;7.664;2023-05-10T21:46:40;985.45;;;9.45;100.00
29815;BME280;16708;50.426;7.664;2023-05-10T21:51:34;985.49;;;9.43;100.00
29815;BME280;16708;50.426;7.664;2023-05-10T21:56:28;985.61;;;9.39;100.00
29815;BME280;16708;50.426;7.664;2023-05-10T22:01:22;985.58;;;9.50;100.00
29815;BME280;16708;50.426;7.664;2023-05-10T22:06:17;985.55;;;9.82;100.00
29815;BME280;16708;50.426;7.664;2023-05-10T22:11:11;985.58;;;9.93;100.00
29815;BME280;16708;50.426;7.664;2023-05-10T22:16:05;985.67;;;10.12;100.00
29815;BME280;16708;50.426;7.664;2023-05-10T22:20:59;985.66;;;10.31;100.00
29815;BME280;16708;50.426;7.664;2023-05-10T22:25:53;985.69;;;10.42;100.00
29815;BME280;16708;50.426;7.664;2023-05-10T22:30:47;985.70;;;10.51;100.00
29815;BME280;16708;50.426;7.664;2023-05-10T22:35:41;985.74;;;10.53;100.00
29815;BME280;16708;50.426;7.664;2023-05-10T22:40:34;985.76;;;10.53;100.00
29815;BME280;16708;50.426;7.664;2023-05-10T22:45:29;985.78;;;10.49;100.00
29815;BME280;16708;50.426;7.664;2023-05-10T22:50:23;985.76;;;10.45;100.00
29815;BME280;16708;50.426;7.664;2023-05-10T22:55:17;985.64;;;10.36;100.00
29815;BME280;16708;50.426;7.664;2023-05-10T23:00:11;985.70;;;10.32;100.00
29815;BME280;16708;50.426;7.664;2023-05-10T23:05:05;985.65;;;10.27;100.00
29815;BME280;16708;50.426;7.664;2023-05-10T23:09:59;985.57;;;10.30;100.00
29815;BME280;16708;50.426;7.664;2023-05-10T23:14:53;985.62;;;10.24;100.00
29815;BME280;16708;50.426;7.664;2023-05-10T23:19:47;985.65;;;10.25;100.00
29815;BME280;16708;50.426;7.664;2023-05-10T23:24:41;985.68;;;10.24;100.00
29815;BME280;16708;50.426;7.664;2023-05-10T23:29:35;985.69;;;10.23;100.00
29815;BME280;16708;50.426;7.664;2023-05-10T23:34:29;985.62;;;10.25;100.00
29815;BME280;16708;50.426;7.664;2023-05-10T23:39:23;985.64;;;10.26;100.00
29815;BME280;16708;50.426;7.664;2023-05-10T23:49:12;985.62;;;10.22;100.00
29815;BME280;16708;50.426;7.664;2023-05-10T23:54:06;985.64;;;10.28;100.00
29815;BME280;16708;50.426;7.664;2023-05-10T23:59:00;985.66;;;10.24;100.00
